Airfield :
LOGIN :

Register | Disclaimer

   EN    FR    IT 

 










Legend :    VFR   Marginal VFR   IFR   Intensive IFR   Very Intensive IFR
Visi :
Ceiling :
>= 8 km
>= 3000ft
5 to 8 km
1000 to 3000 ft
1500m to 5 km
500 to 1000 ft
800 to 1500m
200 to 500 ft
< 800m
< 200 ft
Symbols :   Thunderstorms  Fog  Heavy snow  Heavy precipitations  Wind > 20 kt
SIGMETs :     Misc.  Thunderstorms  Icing  Turbulence  Mountain Waves  Volcanic Ashes







- Airport Elevation : 7 ft
- IATA code : XHE
- Download approach charts


LFTH - Hyeres

CURRENT METAR :
  • 141700Z AUTO 29004KT 190V360 9999 ///CB 29/17 Q1010 BECMG 11010KT NSC

EXPIRED METARs :
  • 141630Z AUTO 22011KT 9999 VCTS ///CB 29/17 Q1010 BECMG 11010KT NSW NSC
  • 141600Z AUTO 23012KT CAVOK 29/17 Q1009 BECMG 11010KT
  • 141530Z AUTO 24012KT CAVOK 28/18 Q1009 BECMG 11010KT
  • 141500Z AUTO 23013KT CAVOK 29/17 Q1009 NOSIG
  • 141430Z AUTO 27009KT 200V300 CAVOK 29/17 Q1009 NOSIG

TAF TAF LFTH
Valid from the 14 at 15:00 until the 15 at 15:00 UTC


141400Z 1415/1515 28010G20KT CAVOK
BECMG 1417/1419 11010KT
BECMG 1421/1423 33005KT SCT025
BECMG 1506/1508 CAVOK
BECMG 1509/1511 22012KT
No reported NOTAMs for that airfield.



MET'MAP, your aeronautical weather chart ! - Copyright ORBIFLY December 2007 - Disclaimer

ORBIFLY MET'MAP TEAM :

Programming & Development : Alexandra Zaïnal
Concept & Development : Baudouin d'Aumeries
Co-Development & Prog : Marc-Olivier Méhu
Technical & hardware support : Manuel Goepfert

Contact : metmap@orbifly.com




SOURCES & CREDITS :

   NOAA